Ambler, Alaska
Current Conditions -  °F | °C
As of 9:16 PM on Friday 28 Nov 2014 (Local Time) from PAFM Reporting Station
Overcast Overcast  
Wind Chill: -12°   Ceiling: 3400
Heat Index: -12°   Visibility: 2.5mi
Dew Point: -14°   Wind: 0mph
Humidity: 85%   Direction: NA
Pressure: 30.14"   Gusts: NA
Location:  67.09°N, 157.85°W
Report Text: PAFM 290616Z AUTO 00000KT 2 1/2SM BKN034 OVC120 M12/M14 A3014 RMK AO1
Loading
Personal Weather Stations






























Interactive Weather Map New forecast layout! Learn more

10-Day Weather Forecast

Advertisements
Track Severe Weather on mobile